sensor_id;sensor_type;location;lat;lon;timestamp;P1;durP1;ratioP1;P2;durP2;ratioP2
18999;SDS011;9633;50.980;13.850;2023-10-09T00:00:55;9.07;;;4.03;;
18999;SDS011;9633;50.980;13.850;2023-10-09T00:02:33;6.87;;;4.30;;
18999;SDS011;9633;50.980;13.850;2023-10-09T00:04:06;7.67;;;4.60;;
18999;SDS011;9633;50.980;13.850;2023-10-09T00:05:42;7.10;;;4.20;;
18999;SDS011;9633;50.980;13.850;2023-10-09T00:07:19;5.47;;;4.27;;
18999;SDS011;9633;50.980;13.850;2023-10-09T00:08:55;7.20;;;4.47;;
18999;SDS011;9633;50.980;13.850;2023-10-09T00:10:28;7.17;;;4.40;;
18999;SDS011;9633;50.980;13.850;2023-10-09T00:12:07;8.30;;;4.50;;
18999;SDS011;9633;50.980;13.850;2023-10-09T00:13:42;8.10;;;4.40;;
18999;SDS011;9633;50.980;13.850;2023-10-09T00:15:21;6.93;;;4.57;;
18999;SDS011;9633;50.980;13.850;2023-10-09T00:16:55;6.23;;;4.77;;
18999;SDS011;9633;50.980;13.850;2023-10-09T00:18:32;9.27;;;5.37;;
18999;SDS011;9633;50.980;13.850;2023-10-09T00:20:06;8.60;;;4.70;;
18999;SDS011;9633;50.980;13.850;2023-10-09T00:21:49;6.80;;;4.50;;
18999;SDS011;9633;50.980;13.850;2023-10-09T00:23:27;6.40;;;4.53;;
18999;SDS011;9633;50.980;13.850;2023-10-09T00:25:03;6.43;;;5.00;;
18999;SDS011;9633;50.980;13.850;2023-10-09T00:26:43;5.87;;;4.20;;
18999;SDS011;9633;50.980;13.850;2023-10-09T00:28:18;8.90;;;4.63;;
18999;SDS011;9633;50.980;13.850;2023-10-09T00:29:53;7.53;;;4.63;;
18999;SDS011;9633;50.980;13.850;2023-10-09T00:31:28;6.83;;;4.40;;
18999;SDS011;9633;50.980;13.850;2023-10-09T00:33:05;7.93;;;4.63;;
18999;SDS011;9633;50.980;13.850;2023-10-09T00:34:41;8.40;;;4.67;;
18999;SDS011;9633;50.980;13.850;2023-10-09T00:36:15;5.83;;;4.00;;
18999;SDS011;9633;50.980;13.850;2023-10-09T00:37:51;7.53;;;4.23;;
18999;SDS011;9633;50.980;13.850;2023-10-09T00:39:30;5.87;;;4.43;;
18999;SDS011;9633;50.980;13.850;2023-10-09T00:41:15;6.77;;;4.30;;
18999;SDS011;9633;50.980;13.850;2023-10-09T00:42:52;5.87;;;3.73;;
18999;SDS011;9633;50.980;13.850;2023-10-09T00:44:27;6.33;;;4.10;;
18999;SDS011;9633;50.980;13.850;2023-10-09T00:46:09;7.00;;;4.10;;
18999;SDS011;9633;50.980;13.850;2023-10-09T00:47:55;5.70;;;3.87;;
18999;SDS011;9633;50.980;13.850;2023-10-09T00:49:30;7.77;;;4.47;;
18999;SDS011;9633;50.980;13.850;2023-10-09T00:51:04;6.17;;;3.90;;
18999;SDS011;9633;50.980;13.850;2023-10-09T00:52:49;7.60;;;4.40;;
18999;SDS011;9633;50.980;13.850;2023-10-09T00:54:25;7.33;;;4.07;;
18999;SDS011;9633;50.980;13.850;2023-10-09T00:56:01;7.40;;;4.13;;
18999;SDS011;9633;50.980;13.850;2023-10-09T00:57:44;5.73;;;3.93;;
18999;SDS011;9633;50.980;13.850;2023-10-09T00:59:22;8.80;;;4.07;;
18999;SDS011;9633;50.980;13.850;2023-10-09T01:00:56;8.00;;;4.30;;
18999;SDS011;9633;50.980;13.850;2023-10-09T01:02:31;5.90;;;4.10;;
18999;SDS011;9633;50.980;13.850;2023-10-09T01:04:08;6.10;;;3.90;;
18999;SDS011;9633;50.980;13.850;2023-10-09T01:05:44;8.97;;;4.37;;
18999;SDS011;9633;50.980;13.850;2023-10-09T01:07:23;4.80;;;3.83;;
18999;SDS011;9633;50.980;13.850;2023-10-09T01:08:57;5.63;;;3.90;;
18999;SDS011;9633;50.980;13.850;2023-10-09T01:10:44;5.00;;;3.90;;
18999;SDS011;9633;50.980;13.850;2023-10-09T01:12:23;6.80;;;4.10;;
18999;SDS011;9633;50.980;13.850;2023-10-09T01:14:00;7.07;;;3.97;;
18999;SDS011;9633;50.980;13.850;2023-10-09T01:15:43;7.20;;;4.00;;
18999;SDS011;9633;50.980;13.850;2023-10-09T01:17:20;5.17;;;3.80;;
18999;SDS011;9633;50.980;13.850;2023-10-09T01:19:08;8.40;;;4.10;;
18999;SDS011;9633;50.980;13.850;2023-10-09T01:20:44;5.53;;;3.93;;
18999;SDS011;9633;50.980;13.850;2023-10-09T01:22:18;7.67;;;4.17;;
18999;SDS011;9633;50.980;13.850;2023-10-09T01:23:54;4.80;;;4.20;;
18999;SDS011;9633;50.980;13.850;2023-10-09T01:25:39;6.43;;;4.20;;
18999;SDS011;9633;50.980;13.850;2023-10-09T01:27:16;7.73;;;4.50;;
18999;SDS011;9633;50.980;13.850;2023-10-09T01:28:54;6.73;;;4.33;;
18999;SDS011;9633;50.980;13.850;2023-10-09T01:30:29;7.30;;;4.40;;
18999;SDS011;9633;50.980;13.850;2023-10-09T01:32:05;6.87;;;4.47;;
18999;SDS011;9633;50.980;13.850;2023-10-09T01:33:40;6.50;;;4.50;;
18999;SDS011;9633;50.980;13.850;2023-10-09T01:35:13;7.50;;;4.87;;
18999;SDS011;9633;50.980;13.850;2023-10-09T01:36:52;6.67;;;4.40;;
18999;SDS011;9633;50.980;13.850;2023-10-09T01:38:27;5.67;;;4.17;;
18999;SDS011;9633;50.980;13.850;2023-10-09T01:40:14;6.30;;;3.97;;
18999;SDS011;9633;50.980;13.850;2023-10-09T01:41:56;6.27;;;4.50;;
18999;SDS011;9633;50.980;13.850;2023-10-09T01:43:31;6.43;;;4.43;;
18999;SDS011;9633;50.980;13.850;2023-10-09T01:45:06;7.97;;;4.60;;
18999;SDS011;9633;50.980;13.850;2023-10-09T01:46:58;6.03;;;4.33;;
18999;SDS011;9633;50.980;13.850;2023-10-09T01:48:31;5.97;;;4.33;;
18999;SDS011;9633;50.980;13.850;2023-10-09T01:50:10;6.73;;;4.67;;
18999;SDS011;9633;50.980;13.850;2023-10-09T01:51:51;7.93;;;4.70;;
18999;SDS011;9633;50.980;13.850;2023-10-09T01:53:24;7.57;;;4.90;;
18999;SDS011;9633;50.980;13.850;2023-10-09T01:55:02;9.47;;;5.10;;
18999;SDS011;9633;50.980;13.850;2023-10-09T01:56:58;5.80;;;4.53;;
18999;SDS011;9633;50.980;13.850;2023-10-09T01:58:36;6.40;;;4.37;;
18999;SDS011;9633;50.980;13.850;2023-10-09T02:00:11;8.13;;;5.00;;
18999;SDS011;9633;50.980;13.850;2023-10-09T02:01:54;6.13;;;4.50;;
18999;SDS011;9633;50.980;13.850;2023-10-09T02:03:30;8.23;;;4.20;;
18999;SDS011;9633;50.980;13.850;2023-10-09T02:05:08;6.63;;;4.67;;
18999;SDS011;9633;50.980;13.850;2023-10-09T02:06:55;8.37;;;4.97;;
18999;SDS011;9633;50.980;13.850;2023-10-09T02:08:28;5.90;;;4.60;;
18999;SDS011;9633;50.980;13.850;2023-10-09T02:10:06;8.20;;;4.97;;
18999;SDS011;9633;50.980;13.850;2023-10-09T02:11:52;7.90;;;4.50;;
18999;SDS011;9633;50.980;13.850;2023-10-09T02:13:28;5.23;;;4.73;;
18999;SDS011;9633;50.980;13.850;2023-10-09T02:15:01;5.43;;;4.63;;
18999;SDS011;9633;50.980;13.850;2023-10-09T02:16:47;8.30;;;5.17;;
18999;SDS011;9633;50.980;13.850;2023-10-09T02:18:33;8.20;;;5.07;;
18999;SDS011;9633;50.980;13.850;2023-10-09T02:20:24;7.07;;;5.30;;
18999;SDS011;9633;50.980;13.850;2023-10-09T02:22:02;7.47;;;4.90;;
18999;SDS011;9633;50.980;13.850;2023-10-09T02:23:43;6.30;;;4.47;;
18999;SDS011;9633;50.980;13.850;2023-10-09T02:25:23;7.37;;;4.80;;
18999;SDS011;9633;50.980;13.850;2023-10-09T02:27:00;8.17;;;4.67;;
18999;SDS011;9633;50.980;13.850;2023-10-09T02:28:44;6.20;;;4.70;;
18999;SDS011;9633;50.980;13.850;2023-10-09T02:30:24;8.80;;;4.37;;
18999;SDS011;9633;50.980;13.850;2023-10-09T02:31:59;6.30;;;4.43;;
18999;SDS011;9633;50.980;13.850;2023-10-09T02:33:44;6.63;;;4.10;;
18999;SDS011;9633;50.980;13.850;2023-10-09T02:35:20;6.50;;;4.40;;
18999;SDS011;9633;50.980;13.850;2023-10-09T02:37:00;6.30;;;4.07;;
18999;SDS011;9633;50.980;13.850;2023-10-09T02:38:37;7.77;;;4.63;;
18999;SDS011;9633;50.980;13.850;2023-10-09T02:40:14;7.07;;;4.07;;
18999;SDS011;9633;50.980;13.850;2023-10-09T02:41:56;7.30;;;4.57;;
18999;SDS011;9633;50.980;13.850;2023-10-09T02:43:35;6.10;;;4.03;;
18999;SDS011;9633;50.980;13.850;2023-10-09T02:45:17;5.93;;;4.23;;
18999;SDS011;9633;50.980;13.850;2023-10-09T02:46:50;7.00;;;4.20;;
18999;SDS011;9633;50.980;13.850;2023-10-09T02:48:29;7.00;;;4.50;;
18999;SDS011;9633;50.980;13.850;2023-10-09T02:50:05;7.30;;;4.87;;
18999;SDS011;9633;50.980;13.850;2023-10-09T02:51:50;7.47;;;4.80;;
18999;SDS011;9633;50.980;13.850;2023-10-09T02:53:24;9.00;;;5.13;;
18999;SDS011;9633;50.980;13.850;2023-10-09T02:55:01;7.63;;;4.80;;
18999;SDS011;9633;50.980;13.850;2023-10-09T02:56:39;6.33;;;4.27;;
18999;SDS011;9633;50.980;13.850;2023-10-09T02:58:14;7.03;;;4.67;;
18999;SDS011;9633;50.980;13.850;2023-10-09T02:59:52;7.90;;;4.40;;
18999;SDS011;9633;50.980;13.850;2023-10-09T03:01:26;7.23;;;4.60;;
18999;SDS011;9633;50.980;13.850;2023-10-09T03:03:00;6.27;;;5.03;;
18999;SDS011;9633;50.980;13.850;2023-10-09T03:04:36;5.97;;;4.70;;
18999;SDS011;9633;50.980;13.850;2023-10-09T03:06:10;6.47;;;4.93;;
18999;SDS011;9633;50.980;13.850;2023-10-09T03:07:45;6.17;;;4.73;;
18999;SDS011;9633;50.980;13.850;2023-10-09T03:09:20;7.83;;;4.77;;
18999;SDS011;9633;50.980;13.850;2023-10-09T03:10:58;7.20;;;4.80;;
18999;SDS011;9633;50.980;13.850;2023-10-09T03:12:32;8.90;;;4.73;;
18999;SDS011;9633;50.980;13.850;2023-10-09T03:14:05;8.63;;;4.93;;
18999;SDS011;9633;50.980;13.850;2023-10-09T03:15:39;6.10;;;4.87;;
18999;SDS011;9633;50.980;13.850;2023-10-09T03:17:13;7.77;;;5.47;;
18999;SDS011;9633;50.980;13.850;2023-10-09T03:18:47;8.67;;;6.23;;
18999;SDS011;9633;50.980;13.850;2023-10-09T03:20:20;7.40;;;5.67;;
18999;SDS011;9633;50.980;13.850;2023-10-09T03:21:53;7.50;;;5.60;;
18999;SDS011;9633;50.980;13.850;2023-10-09T03:23:29;8.20;;;6.60;;
18999;SDS011;9633;50.980;13.850;2023-10-09T03:25:03;9.30;;;6.60;;
18999;SDS011;9633;50.980;13.850;2023-10-09T03:26:42;8.83;;;6.53;;
18999;SDS011;9633;50.980;13.850;2023-10-09T03:28:17;10.80;;;7.97;;
18999;SDS011;9633;50.980;13.850;2023-10-09T03:29:49;12.13;;;8.20;;
18999;SDS011;9633;50.980;13.850;2023-10-09T03:31:25;11.77;;;8.30;;
18999;SDS011;9633;50.980;13.850;2023-10-09T03:33:00;13.27;;;9.33;;
18999;SDS011;9633;50.980;13.850;2023-10-09T03:34:35;13.47;;;9.47;;
18999;SDS011;9633;50.980;13.850;2023-10-09T03:36:08;15.10;;;9.83;;
18999;SDS011;9633;50.980;13.850;2023-10-09T03:37:41;13.83;;;9.90;;
18999;SDS011;9633;50.980;13.850;2023-10-09T03:39:14;14.50;;;10.43;;
18999;SDS011;9633;50.980;13.850;2023-10-09T03:40:56;13.63;;;10.77;;
18999;SDS011;9633;50.980;13.850;2023-10-09T03:42:32;15.47;;;11.07;;
18999;SDS011;9633;50.980;13.850;2023-10-09T03:44:07;14.20;;;10.07;;
18999;SDS011;9633;50.980;13.850;2023-10-09T03:45:45;13.83;;;11.10;;
18999;SDS011;9633;50.980;13.850;2023-10-09T03:47:23;14.13;;;11.00;;
18999;SDS011;9633;50.980;13.850;2023-10-09T03:49:01;14.03;;;11.20;;
18999;SDS011;9633;50.980;13.850;2023-10-09T03:50:33;15.27;;;11.47;;
18999;SDS011;9633;50.980;13.850;2023-10-09T03:52:08;14.10;;;10.93;;
18999;SDS011;9633;50.980;13.850;2023-10-09T03:53:48;15.30;;;11.33;;
18999;SDS011;9633;50.980;13.850;2023-10-09T03:55:24;15.90;;;11.40;;
18999;SDS011;9633;50.980;13.850;2023-10-09T03:56:59;14.93;;;10.90;;
18999;SDS011;9633;50.980;13.850;2023-10-09T03:58:33;15.53;;;11.03;;
18999;SDS011;9633;50.980;13.850;2023-10-09T04:00:06;14.10;;;10.60;;
18999;SDS011;9633;50.980;13.850;2023-10-09T04:01:42;11.57;;;10.20;;
18999;SDS011;9633;50.980;13.850;2023-10-09T04:03:15;12.40;;;10.07;;
18999;SDS011;9633;50.980;13.850;2023-10-09T04:04:50;12.43;;;9.67;;
18999;SDS011;9633;50.980;13.850;2023-10-09T04:06:23;14.03;;;10.07;;
18999;SDS011;9633;50.980;13.850;2023-10-09T04:08:00;13.17;;;9.43;;
18999;SDS011;9633;50.980;13.850;2023-10-09T04:09:33;12.37;;;9.47;;
18999;SDS011;9633;50.980;13.850;2023-10-09T04:11:11;11.23;;;9.23;;
18999;SDS011;9633;50.980;13.850;2023-10-09T04:12:47;13.10;;;9.30;;
18999;SDS011;9633;50.980;13.850;2023-10-09T04:14:24;12.83;;;9.40;;
18999;SDS011;9633;50.980;13.850;2023-10-09T04:16:03;10.83;;;8.67;;
18999;SDS011;9633;50.980;13.850;2023-10-09T04:17:51;13.27;;;9.10;;
18999;SDS011;9633;50.980;13.850;2023-10-09T04:19:23;14.30;;;9.67;;
18999;SDS011;9633;50.980;13.850;2023-10-09T04:20:59;13.70;;;9.23;;
18999;SDS011;9633;50.980;13.850;2023-10-09T04:22:46;12.23;;;9.00;;
18999;SDS011;9633;50.980;13.850;2023-10-09T04:24:22;10.80;;;8.30;;
18999;SDS011;9633;50.980;13.850;2023-10-09T04:25:55;14.17;;;8.63;;
18999;SDS011;9633;50.980;13.850;2023-10-09T04:27:31;10.80;;;8.33;;
18999;SDS011;9633;50.980;13.850;2023-10-09T04:29:08;10.83;;;8.97;;
18999;SDS011;9633;50.980;13.850;2023-10-09T04:30:42;11.27;;;8.00;;
18999;SDS011;9633;50.980;13.850;2023-10-09T04:32:15;11.20;;;8.33;;
18999;SDS011;9633;50.980;13.850;2023-10-09T04:33:49;12.63;;;8.27;;
18999;SDS011;9633;50.980;13.850;2023-10-09T04:35:50;11.57;;;8.63;;
18999;SDS011;9633;50.980;13.850;2023-10-09T04:37:44;10.73;;;8.43;;
18999;SDS011;9633;50.980;13.850;2023-10-09T04:39:23;11.30;;;8.80;;
18999;SDS011;9633;50.980;13.850;2023-10-09T04:41:18;12.50;;;8.77;;
18999;SDS011;9633;50.980;13.850;2023-10-09T04:42:59;11.83;;;8.83;;
18999;SDS011;9633;50.980;13.850;2023-10-09T04:44:37;12.80;;;8.47;;
18999;SDS011;9633;50.980;13.850;2023-10-09T04:46:10;11.90;;;8.77;;
18999;SDS011;9633;50.980;13.850;2023-10-09T04:47:44;12.37;;;8.40;;
18999;SDS011;9633;50.980;13.850;2023-10-09T04:49:31;11.87;;;8.40;;
18999;SDS011;9633;50.980;13.850;2023-10-09T04:51:21;13.00;;;9.00;;
18999;SDS011;9633;50.980;13.850;2023-10-09T04:52:55;12.53;;;9.30;;
18999;SDS011;9633;50.980;13.850;2023-10-09T04:54:27;11.57;;;8.90;;
18999;SDS011;9633;50.980;13.850;2023-10-09T04:56:11;14.17;;;9.37;;
18999;SDS011;9633;50.980;13.850;2023-10-09T04:57:47;12.97;;;9.67;;
18999;SDS011;9633;50.980;13.850;2023-10-09T04:59:34;12.43;;;9.40;;
18999;SDS011;9633;50.980;13.850;2023-10-09T05:01:17;10.70;;;8.80;;
18999;SDS011;9633;50.980;13.850;2023-10-09T05:03:08;12.53;;;9.00;;
18999;SDS011;9633;50.980;13.850;2023-10-09T05:04:44;13.80;;;9.77;;
18999;SDS011;9633;50.980;13.850;2023-10-09T05:06:19;15.40;;;9.10;;
18999;SDS011;9633;50.980;13.850;2023-10-09T05:07:52;13.77;;;9.90;;
18999;SDS011;9633;50.980;13.850;2023-10-09T05:09:28;13.97;;;9.97;;
18999;SDS011;9633;50.980;13.850;2023-10-09T05:11:22;12.63;;;9.80;;
18999;SDS011;9633;50.980;13.850;2023-10-09T05:13:24;12.67;;;8.97;;
18999;SDS011;9633;50.980;13.850;2023-10-09T05:15:14;17.33;;;10.13;;
18999;SDS011;9633;50.980;13.850;2023-10-09T05:16:47;13.53;;;10.10;;
18999;SDS011;9633;50.980;13.850;2023-10-09T05:18:33;13.47;;;10.33;;
18999;SDS011;9633;50.980;13.850;2023-10-09T05:20:09;14.17;;;10.47;;
18999;SDS011;9633;50.980;13.850;2023-10-09T05:21:59;13.33;;;10.10;;
18999;SDS011;9633;50.980;13.850;2023-10-09T05:23:40;15.47;;;10.77;;
18999;SDS011;9633;50.980;13.850;2023-10-09T05:25:16;17.13;;;10.40;;
18999;SDS011;9633;50.980;13.850;2023-10-09T05:27:08;16.07;;;10.70;;
18999;SDS011;9633;50.980;13.850;2023-10-09T05:28:50;15.37;;;11.47;;
18999;SDS011;9633;50.980;13.850;2023-10-09T05:30:24;15.20;;;11.23;;
18999;SDS011;9633;50.980;13.850;2023-10-09T05:31:57;16.83;;;11.10;;
18999;SDS011;9633;50.980;13.850;2023-10-09T05:33:35;16.67;;;11.47;;
18999;SDS011;9633;50.980;13.850;2023-10-09T05:35:08;16.80;;;12.27;;
18999;SDS011;9633;50.980;13.850;2023-10-09T05:37:01;14.50;;;11.30;;
18999;SDS011;9633;50.980;13.850;2023-10-09T05:38:50;14.30;;;11.03;;
18999;SDS011;9633;50.980;13.850;2023-10-09T05:40:30;14.60;;;11.40;;
18999;SDS011;9633;50.980;13.850;2023-10-09T05:42:03;15.73;;;11.90;;
18999;SDS011;9633;50.980;13.850;2023-10-09T05:43:49;15.57;;;12.00;;
18999;SDS011;9633;50.980;13.850;2023-10-09T05:45:39;15.63;;;11.43;;
18999;SDS011;9633;50.980;13.850;2023-10-09T05:47:47;14.07;;;10.83;;
18999;SDS011;9633;50.980;13.850;2023-10-09T05:49:25;14.73;;;12.03;;
18999;SDS011;9633;50.980;13.850;2023-10-09T05:51:17;15.67;;;12.03;;
18999;SDS011;9633;50.980;13.850;2023-10-09T05:53:07;17.47;;;12.40;;
18999;SDS011;9633;50.980;13.850;2023-10-09T05:54:59;16.20;;;13.10;;
18999;SDS011;9633;50.980;13.850;2023-10-09T05:56:50;19.73;;;13.93;;
18999;SDS011;9633;50.980;13.850;2023-10-09T05:58:52;17.83;;;13.40;;
18999;SDS011;9633;50.980;13.850;2023-10-09T06:00:43;17.27;;;12.97;;
18999;SDS011;9633;50.980;13.850;2023-10-09T06:02:34;18.20;;;13.27;;
18999;SDS011;9633;50.980;13.850;2023-10-09T06:04:33;19.70;;;14.07;;
18999;SDS011;9633;50.980;13.850;2023-10-09T06:06:21;20.60;;;14.00;;
18999;SDS011;9633;50.980;13.850;2023-10-09T06:08:06;18.40;;;13.67;;
18999;SDS011;9633;50.980;13.850;2023-10-09T06:09:39;18.07;;;14.43;;
18999;SDS011;9633;50.980;13.850;2023-10-09T06:11:23;17.47;;;13.80;;
18999;SDS011;9633;50.980;13.850;2023-10-09T06:13:09;16.33;;;13.67;;
18999;SDS011;9633;50.980;13.850;2023-10-09T06:15:00;19.20;;;14.07;;
18999;SDS011;9633;50.980;13.850;2023-10-09T06:16:47;20.17;;;13.57;;
18999;SDS011;9633;50.980;13.850;2023-10-09T06:18:32;18.87;;;12.90;;
18999;SDS011;9633;50.980;13.850;2023-10-09T06:20:06;18.70;;;13.90;;
18999;SDS011;9633;50.980;13.850;2023-10-09T06:22:02;19.50;;;14.23;;
18999;SDS011;9633;50.980;13.850;2023-10-09T06:23:53;21.43;;;14.20;;
18999;SDS011;9633;50.980;13.850;2023-10-09T06:25:57;21.23;;;14.20;;
18999;SDS011;9633;50.980;13.850;2023-10-09T06:27:54;21.27;;;14.57;;
18999;SDS011;9633;50.980;13.850;2023-10-09T06:29:29;19.10;;;14.43;;
18999;SDS011;9633;50.980;13.850;2023-10-09T06:31:06;18.53;;;14.53;;
18999;SDS011;9633;50.980;13.850;2023-10-09T06:32:54;21.73;;;14.33;;
18999;SDS011;9633;50.980;13.850;2023-10-09T06:34:45;18.03;;;13.50;;
18999;SDS011;9633;50.980;13.850;2023-10-09T06:36:23;19.33;;;14.47;;
18999;SDS011;9633;50.980;13.850;2023-10-09T06:38:03;18.37;;;14.50;;
18999;SDS011;9633;50.980;13.850;2023-10-09T06:40:05;20.83;;;15.20;;
18999;SDS011;9633;50.980;13.850;2023-10-09T06:42:02;18.30;;;14.53;;
18999;SDS011;9633;50.980;13.850;2023-10-09T06:43:43;22.33;;;14.97;;
18999;SDS011;9633;50.980;13.850;2023-10-09T06:45:19;21.00;;;14.93;;
18999;SDS011;9633;50.980;13.850;2023-10-09T06:46:52;19.07;;;14.97;;
18999;SDS011;9633;50.980;13.850;2023-10-09T06:48:29;19.77;;;15.40;;
18999;SDS011;9633;50.980;13.850;2023-10-09T06:50:16;17.43;;;13.77;;
18999;SDS011;9633;50.980;13.850;2023-10-09T06:51:57;18.53;;;14.43;;
18999;SDS011;9633;50.980;13.850;2023-10-09T06:53:45;18.77;;;13.87;;
18999;SDS011;9633;50.980;13.850;2023-10-09T06:55:35;19.50;;;13.83;;
18999;SDS011;9633;50.980;13.850;2023-10-09T06:57:19;19.83;;;15.13;;
18999;SDS011;9633;50.980;13.850;2023-10-09T06:59:11;19.43;;;14.30;;
18999;SDS011;9633;50.980;13.850;2023-10-09T07:00:53;22.07;;;15.20;;
18999;SDS011;9633;50.980;13.850;2023-10-09T07:02:51;19.10;;;14.40;;
18999;SDS011;9633;50.980;13.850;2023-10-09T07:04:25;19.77;;;15.50;;
18999;SDS011;9633;50.980;13.850;2023-10-09T07:06:12;21.77;;;14.87;;
18999;SDS011;9633;50.980;13.850;2023-10-09T07:07:56;19.47;;;15.23;;
18999;SDS011;9633;50.980;13.850;2023-10-09T07:09:48;20.50;;;14.63;;
18999;SDS011;9633;50.980;13.850;2023-10-09T07:11:35;20.83;;;15.13;;
18999;SDS011;9633;50.980;13.850;2023-10-09T07:13:23;20.33;;;14.83;;
18999;SDS011;9633;50.980;13.850;2023-10-09T07:15:00;20.60;;;14.77;;
18999;SDS011;9633;50.980;13.850;2023-10-09T07:16:33;20.57;;;14.90;;
18999;SDS011;9633;50.980;13.850;2023-10-09T07:18:10;20.33;;;14.77;;
18999;SDS011;9633;50.980;13.850;2023-10-09T07:19:51;22.33;;;15.07;;
18999;SDS011;9633;50.980;13.850;2023-10-09T07:22:06;18.67;;;14.03;;
18999;SDS011;9633;50.980;13.850;2023-10-09T07:23:48;19.20;;;14.47;;
18999;SDS011;9633;50.980;13.850;2023-10-09T07:25:27;19.47;;;14.60;;
18999;SDS011;9633;50.980;13.850;2023-10-09T07:27:12;21.07;;;15.00;;
18999;SDS011;9633;50.980;13.850;2023-10-09T07:28:46;21.63;;;15.33;;
18999;SDS011;9633;50.980;13.850;2023-10-09T07:30:21;19.63;;;15.30;;
18999;SDS011;9633;50.980;13.850;2023-10-09T07:32:08;20.53;;;15.43;;
18999;SDS011;9633;50.980;13.850;2023-10-09T07:33:51;19.50;;;14.73;;
18999;SDS011;9633;50.980;13.850;2023-10-09T07:35:30;21.23;;;15.57;;
18999;SDS011;9633;50.980;13.850;2023-10-09T07:37:18;20.47;;;15.00;;
18999;SDS011;9633;50.980;13.850;2023-10-09T07:38:54;18.40;;;15.23;;
18999;SDS011;9633;50.980;13.850;2023-10-09T07:40:27;20.70;;;15.50;;
18999;SDS011;9633;50.980;13.850;2023-10-09T07:42:06;19.63;;;15.77;;
18999;SDS011;9633;50.980;13.850;2023-10-09T07:43:51;21.47;;;15.13;;
18999;SDS011;9633;50.980;13.850;2023-10-09T07:45:28;22.77;;;15.80;;
18999;SDS011;9633;50.980;13.850;2023-10-09T07:47:15;21.47;;;16.33;;
18999;SDS011;9633;50.980;13.850;2023-10-09T07:48:54;21.23;;;15.63;;
18999;SDS011;9633;50.980;13.850;2023-10-09T07:50:28;21.23;;;16.33;;
18999;SDS011;9633;50.980;13.850;2023-10-09T07:52:09;20.57;;;15.50;;
18999;SDS011;9633;50.980;13.850;2023-10-09T07:53:42;21.43;;;15.37;;
18999;SDS011;9633;50.980;13.850;2023-10-09T07:55:21;20.43;;;14.50;;
18999;SDS011;9633;50.980;13.850;2023-10-09T07:57:11;21.33;;;15.07;;
18999;SDS011;9633;50.980;13.850;2023-10-09T07:58:47;22.03;;;16.47;;
18999;SDS011;9633;50.980;13.850;2023-10-09T08:00:21;19.63;;;15.10;;
18999;SDS011;9633;50.980;13.850;2023-10-09T08:02:22;20.93;;;15.80;;
18999;SDS011;9633;50.980;13.850;2023-10-09T08:04:03;24.93;;;16.50;;
18999;SDS011;9633;50.980;13.850;2023-10-09T08:05:43;22.67;;;16.50;;
18999;SDS011;9633;50.980;13.850;2023-10-09T08:07:16;21.30;;;16.00;;
18999;SDS011;9633;50.980;13.850;2023-10-09T08:09:16;20.63;;;15.40;;
18999;SDS011;9633;50.980;13.850;2023-10-09T08:10:54;20.20;;;16.03;;
18999;SDS011;9633;50.980;13.850;2023-10-09T08:12:50;23.87;;;16.50;;
18999;SDS011;9633;50.980;13.850;2023-10-09T08:14:52;22.03;;;15.70;;
18999;SDS011;9633;50.980;13.850;2023-10-09T08:16:31;23.00;;;16.73;;
18999;SDS011;9633;50.980;13.850;2023-10-09T08:18:12;20.60;;;14.77;;
18999;SDS011;9633;50.980;13.850;2023-10-09T08:19:50;22.23;;;16.40;;
18999;SDS011;9633;50.980;13.850;2023-10-09T08:21:26;20.53;;;15.07;;
18999;SDS011;9633;50.980;13.850;2023-10-09T08:23:13;19.50;;;15.07;;
18999;SDS011;9633;50.980;13.850;2023-10-09T08:24:58;17.97;;;15.10;;
18999;SDS011;9633;50.980;13.850;2023-10-09T08:26:30;20.63;;;14.97;;
18999;SDS011;9633;50.980;13.850;2023-10-09T08:28:18;23.00;;;16.77;;
18999;SDS011;9633;50.980;13.850;2023-10-09T08:30:14;21.67;;;16.57;;
18999;SDS011;9633;50.980;13.850;2023-10-09T08:32:00;22.13;;;16.87;;
18999;SDS011;9633;50.980;13.850;2023-10-09T08:34:10;21.87;;;16.63;;
18999;SDS011;9633;50.980;13.850;2023-10-09T08:36:15;20.73;;;15.97;;
18999;SDS011;9633;50.980;13.850;2023-10-09T08:37:55;24.60;;;17.73;;
18999;SDS011;9633;50.980;13.850;2023-10-09T08:39:30;23.43;;;17.63;;
18999;SDS011;9633;50.980;13.850;2023-10-09T08:41:06;25.87;;;18.60;;
18999;SDS011;9633;50.980;13.850;2023-10-09T08:42:51;25.20;;;17.23;;
18999;SDS011;9633;50.980;13.850;2023-10-09T08:44:26;27.93;;;18.53;;
18999;SDS011;9633;50.980;13.850;2023-10-09T08:46:04;23.40;;;18.00;;
18999;SDS011;9633;50.980;13.850;2023-10-09T08:47:37;22.67;;;17.17;;
18999;SDS011;9633;50.980;13.850;2023-10-09T08:49:11;24.30;;;18.50;;
18999;SDS011;9633;50.980;13.850;2023-10-09T08:50:45;24.30;;;17.37;;
18999;SDS011;9633;50.980;13.850;2023-10-09T08:52:21;23.57;;;17.77;;
18999;SDS011;9633;50.980;13.850;2023-10-09T08:53:56;22.17;;;17.43;;
18999;SDS011;9633;50.980;13.850;2023-10-09T08:55:29;24.43;;;16.63;;
18999;SDS011;9633;50.980;13.850;2023-10-09T08:57:02;24.30;;;17.47;;
18999;SDS011;9633;50.980;13.850;2023-10-09T08:58:41;23.87;;;17.00;;
18999;SDS011;9633;50.980;13.850;2023-10-09T09:00:16;24.37;;;17.77;;
18999;SDS011;9633;50.980;13.850;2023-10-09T09:01:53;24.27;;;17.10;;
18999;SDS011;9633;50.980;13.850;2023-10-09T09:03:38;23.20;;;18.03;;
18999;SDS011;9633;50.980;13.850;2023-10-09T09:05:17;26.90;;;17.90;;
18999;SDS011;9633;50.980;13.850;2023-10-09T09:06:51;22.83;;;17.53;;
18999;SDS011;9633;50.980;13.850;2023-10-09T09:08:25;23.10;;;17.80;;
18999;SDS011;9633;50.980;13.850;2023-10-09T09:10:00;26.80;;;19.23;;
18999;SDS011;9633;50.980;13.850;2023-10-09T09:11:36;25.17;;;18.73;;
18999;SDS011;9633;50.980;13.850;2023-10-09T09:13:19;23.13;;;17.43;;
18999;SDS011;9633;50.980;13.850;2023-10-09T09:14:52;26.63;;;19.27;;
18999;SDS011;9633;50.980;13.850;2023-10-09T09:16:25;29.23;;;19.80;;
18999;SDS011;9633;50.980;13.850;2023-10-09T09:18:04;26.03;;;19.13;;
18999;SDS011;9633;50.980;13.850;2023-10-09T09:19:41;28.33;;;21.10;;
18999;SDS011;9633;50.980;13.850;2023-10-09T09:21:18;30.40;;;20.37;;
18999;SDS011;9633;50.980;13.850;2023-10-09T09:22:54;28.53;;;22.07;;
18999;SDS011;9633;50.980;13.850;2023-10-09T09:24:29;25.93;;;19.40;;
18999;SDS011;9633;50.980;13.850;2023-10-09T09:26:03;25.37;;;18.67;;
18999;SDS011;9633;50.980;13.850;2023-10-09T09:27:43;26.97;;;18.47;;
18999;SDS011;9633;50.980;13.850;2023-10-09T09:29:21;28.27;;;19.57;;
18999;SDS011;9633;50.980;13.850;2023-10-09T09:30:56;24.37;;;17.63;;
18999;SDS011;9633;50.980;13.850;2023-10-09T09:32:44;24.73;;;18.17;;
18999;SDS011;9633;50.980;13.850;2023-10-09T09:34:42;25.53;;;18.23;;
18999;SDS011;9633;50.980;13.850;2023-10-09T09:36:20;25.10;;;17.50;;
18999;SDS011;9633;50.980;13.850;2023-10-09T09:37:57;24.27;;;17.70;;
18999;SDS011;9633;50.980;13.850;2023-10-09T09:39:36;28.70;;;18.67;;
18999;SDS011;9633;50.980;13.850;2023-10-09T09:41:26;25.10;;;17.60;;
18999;SDS011;9633;50.980;13.850;2023-10-09T09:42:59;25.40;;;17.27;;
18999;SDS011;9633;50.980;13.850;2023-10-09T09:44:36;24.57;;;18.37;;
18999;SDS011;9633;50.980;13.850;2023-10-09T09:46:15;30.53;;;19.97;;
18999;SDS011;9633;50.980;13.850;2023-10-09T09:47:53;26.20;;;18.13;;
18999;SDS011;9633;50.980;13.850;2023-10-09T09:49:29;27.27;;;18.47;;
18999;SDS011;9633;50.980;13.850;2023-10-09T09:51:04;27.90;;;18.00;;
18999;SDS011;9633;50.980;13.850;2023-10-09T09:52:41;28.17;;;19.67;;
18999;SDS011;9633;50.980;13.850;2023-10-09T09:54:14;26.40;;;18.90;;